CES5682 ZBMZ-ZSNJ
Flight info
| Callsign | CES5682 |
|---|---|
| Flight time | 3h 24m |
| Altitude | 26600 |
| Route | MZL W538 KAGAK A345 BIDIB A588 UDETI W106 MAKNO W5 TAO W174 XDX H28 RUXEL W178 OF |
| Aircraft | B463/M-SDE1E2E3FGHIJ2J3J4J5M1RWXYZ/LB1D1 |
Departure
| Time | 2026-05-06 14:56 |
|---|---|
| Airport | Manzhouli Xijiao Airport (ZBMZ) |
Arrival
| Time | 2026-05-06 18:20 |
|---|---|
| Airport | Nanjing Lukou International Airport (ZSNJ) |
| Time | Latitude | Longitude | Altitude | Speed | Heading |
|---|---|---|---|---|---|
| 2026-05-06 14:05 | 49.56961 | 117.32984 | 2237 ft | 0 kts | 18° |
| 2026-05-06 14:46 | 49.56952 | 117.32979 | 2213 ft | 3 kts | 17° |
| 2026-05-06 14:47 | 49.56929 | 117.32968 | 2223 ft | 3 kts | 19° |
| 2026-05-06 14:47 | 49.56906 | 117.32954 | 2227 ft | 3 kts | 25° |
| 2026-05-06 14:47 | 49.56885 | 117.32936 | 2224 ft | 3 kts | 31° |
| 2026-05-06 14:47 | 49.56879 | 117.32930 | 2224 ft | 0 kts | 31° |
| 2026-05-06 14:51 | 49.56880 | 117.32932 | 2224 ft | 1 kts | 31° |
| 2026-05-06 14:51 | 49.56884 | 117.32954 | 2222 ft | 4 kts | 110° |
| 2026-05-06 14:51 | 49.56870 | 117.33015 | 2224 ft | 8 kts | 107° |
| 2026-05-06 14:52 | 49.56851 | 117.33110 | 2226 ft | 11 kts | 107° |
| 2026-05-06 14:52 | 49.56787 | 117.33159 | 2225 ft | 13 kts | 195° |
| 2026-05-06 14:52 | 49.56703 | 117.33121 | 2225 ft | 12 kts | 196° |
| 2026-05-06 14:52 | 49.56633 | 117.33166 | 2228 ft | 12 kts | 128° |
| 2026-05-06 14:53 | 49.56609 | 117.33279 | 2226 ft | 12 kts | 106° |
| 2026-05-06 14:53 | 49.56585 | 117.33406 | 2226 ft | 13 kts | 106° |
| 2026-05-06 14:53 | 49.56557 | 117.33551 | 2226 ft | 15 kts | 107° |
| 2026-05-06 14:53 | 49.56525 | 117.33702 | 2224 ft | 15 kts | 108° |
| 2026-05-06 14:54 | 49.56489 | 117.33866 | 2228 ft | 16 kts | 108° |
| 2026-05-06 14:54 | 49.56455 | 117.34035 | 2225 ft | 17 kts | 106° |
| 2026-05-06 14:54 | 49.56420 | 117.34217 | 2226 ft | 19 kts | 106° |
| 2026-05-06 14:54 | 49.56382 | 117.34415 | 2224 ft | 20 kts | 107° |
| 2026-05-06 14:55 | 49.56342 | 117.34643 | 2226 ft | 26 kts | 91° |
| 2026-05-06 14:55 | 49.56292 | 117.34760 | 2223 ft | 8 kts | 266° |
| 2026-05-06 14:55 | 49.56322 | 117.34694 | 2226 ft | 11 kts | 290° |
| 2026-05-06 14:55 | 49.56406 | 117.34278 | 2227 ft | 73 kts | 287° |
| 2026-05-06 14:56 | 49.56616 | 117.33236 | 2227 ft | 128 kts | 287° |
| 2026-05-06 14:56 | 49.56913 | 117.31743 | 2396 ft | 154 kts | 288° |
| 2026-05-06 14:56 | 49.57207 | 117.30120 | 2997 ft | 158 kts | 287° |
| 2026-05-06 14:56 | 49.57475 | 117.28514 | 3734 ft | 156 kts | 283° |
| 2026-05-06 14:57 | 49.57153 | 117.26806 | 3981 ft | 188 kts | 230° |
| 2026-05-06 14:57 | 49.55947 | 117.25840 | 4278 ft | 210 kts | 187° |
| 2026-05-06 14:57 | 49.54484 | 117.26297 | 4581 ft | 225 kts | 147° |
| 2026-05-06 14:57 | 49.53384 | 117.28005 | 4813 ft | 231 kts | 122° |
| 2026-05-06 14:58 | 49.52479 | 117.30064 | 5025 ft | 233 kts | 120° |
| 2026-05-06 14:58 | 49.51600 | 117.32160 | 5234 ft | 233 kts | 118° |
| 2026-05-06 14:58 | 49.50731 | 117.34260 | 5464 ft | 233 kts | 118° |
| 2026-05-06 14:58 | 49.49873 | 117.36345 | 5703 ft | 234 kts | 117° |
| 2026-05-06 14:59 | 49.49041 | 117.38532 | 5973 ft | 234 kts | 116° |
| 2026-05-06 14:59 | 49.48191 | 117.40667 | 6228 ft | 234 kts | 119° |
| 2026-05-06 14:59 | 49.47260 | 117.42696 | 6481 ft | 237 kts | 123° |
| 2026-05-06 14:59 | 49.46195 | 117.44741 | 6727 ft | 259 kts | 126° |
| 2026-05-06 15:00 | 49.44960 | 117.46891 | 7253 ft | 270 kts | 129° |
| 2026-05-06 15:00 | 49.43663 | 117.48968 | 8189 ft | 273 kts | 131° |
| 2026-05-06 15:00 | 49.42285 | 117.51079 | 8818 ft | 287 kts | 133° |
| 2026-05-06 15:00 | 49.40823 | 117.53252 | 9550 ft | 296 kts | 133° |
| 2026-05-06 15:01 | 49.39317 | 117.55454 | 10359 ft | 301 kts | 134° |
| 2026-05-06 15:01 | 49.37776 | 117.57657 | 11130 ft | 304 kts | 135° |
| 2026-05-06 15:01 | 49.36195 | 117.59913 | 11646 ft | 317 kts | 135° |
| 2026-05-06 15:01 | 49.34545 | 117.62269 | 12049 ft | 330 kts | 135° |
| 2026-05-06 15:02 | 49.32995 | 117.64873 | 12610 ft | 331 kts | 117° |
| 2026-05-06 15:02 | 49.32223 | 117.68146 | 13205 ft | 327 kts | 99° |
| 2026-05-06 15:02 | 49.31768 | 117.71572 | 13778 ft | 330 kts | 98° |
| 2026-05-06 15:02 | 49.31335 | 117.75052 | 14298 ft | 333 kts | 97° |
| 2026-05-06 15:03 | 49.30923 | 117.78549 | 14722 ft | 337 kts | 97° |
| 2026-05-06 15:03 | 49.30499 | 117.82120 | 14888 ft | 342 kts | 97° |
| 2026-05-06 15:03 | 49.30062 | 117.85621 | 14926 ft | 331 kts | 97° |
| 2026-05-06 15:03 | 49.29611 | 117.89097 | 14945 ft | 333 kts | 98° |
| 2026-05-06 15:04 | 49.29139 | 117.92579 | 14939 ft | 334 kts | 98° |
| 2026-05-06 15:04 | 49.28670 | 117.96018 | 14946 ft | 334 kts | 98° |
| 2026-05-06 15:04 | 49.28188 | 117.99520 | 15223 ft | 338 kts | 98° |
| 2026-05-06 15:04 | 49.27701 | 118.03049 | 15616 ft | 340 kts | 98° |
| 2026-05-06 15:05 | 49.27208 | 118.06596 | 16001 ft | 342 kts | 98° |
| 2026-05-06 15:05 | 49.26734 | 118.10165 | 16376 ft | 343 kts | 95° |
| 2026-05-06 15:05 | 49.26483 | 118.13804 | 16754 ft | 343 kts | 90° |
| 2026-05-06 15:05 | 49.26362 | 118.17463 | 17135 ft | 345 kts | 88° |
| 2026-05-06 15:06 | 49.26277 | 118.21146 | 17505 ft | 347 kts | 88° |
| 2026-05-06 15:06 | 49.26211 | 118.24849 | 17876 ft | 349 kts | 88° |
| 2026-05-06 15:06 | 49.26131 | 118.28572 | 18243 ft | 351 kts | 88° |
| 2026-05-06 15:06 | 49.26046 | 118.32314 | 18583 ft | 353 kts | 89° |
| 2026-05-06 15:07 | 49.25930 | 118.36083 | 18910 ft | 355 kts | 89° |
| 2026-05-06 15:07 | 49.25805 | 118.39860 | 19237 ft | 356 kts | 89° |
| 2026-05-06 15:07 | 49.25693 | 118.43654 | 19558 ft | 357 kts | 88° |
| 2026-05-06 15:07 | 49.25578 | 118.47414 | 19867 ft | 358 kts | 88° |
| 2026-05-06 15:08 | 49.25460 | 118.51231 | 20185 ft | 360 kts | 88° |
| 2026-05-06 15:08 | 49.25333 | 118.55073 | 20492 ft | 361 kts | 88° |
| 2026-05-06 15:08 | 49.25202 | 118.58911 | 20802 ft | 363 kts | 88° |
| 2026-05-06 15:08 | 49.25063 | 118.62776 | 21101 ft | 364 kts | 88° |
| 2026-05-06 15:09 | 49.24920 | 118.66662 | 21421 ft | 365 kts | 88° |
| 2026-05-06 15:09 | 49.24797 | 118.70562 | 21618 ft | 369 kts | 88° |
| 2026-05-06 15:09 | 49.24671 | 118.74494 | 21896 ft | 370 kts | 88° |
| 2026-05-06 15:09 | 49.24540 | 118.78430 | 22177 ft | 371 kts | 88° |
| 2026-05-06 15:10 | 49.24404 | 118.82384 | 22453 ft | 373 kts | 88° |
| 2026-05-06 15:10 | 49.24263 | 118.86350 | 22735 ft | 374 kts | 88° |
| 2026-05-06 15:10 | 49.24117 | 118.90337 | 22992 ft | 375 kts | 88° |
| 2026-05-06 15:10 | 49.23966 | 118.94331 | 23256 ft | 377 kts | 88° |
| 2026-05-06 15:11 | 49.23812 | 118.98350 | 23505 ft | 378 kts | 88° |
| 2026-05-06 15:11 | 49.23652 | 119.02375 | 23757 ft | 379 kts | 88° |
| 2026-05-06 15:11 | 49.23512 | 119.06397 | 23952 ft | 380 kts | 87° |
| 2026-05-06 15:11 | 49.23372 | 119.10404 | 24165 ft | 382 kts | 88° |
| 2026-05-06 15:12 | 49.23217 | 119.14462 | 24377 ft | 383 kts | 88° |
| 2026-05-06 15:12 | 49.23068 | 119.18557 | 24495 ft | 387 kts | 89° |
| 2026-05-06 15:12 | 49.22919 | 119.22680 | 24651 ft | 388 kts | 89° |
| 2026-05-06 15:12 | 49.22767 | 119.26793 | 24698 ft | 384 kts | 89° |
| 2026-05-06 15:13 | 49.22614 | 119.30851 | 24710 ft | 380 kts | 89° |
| 2026-05-06 15:13 | 49.22459 | 119.34885 | 24714 ft | 380 kts | 89° |
| 2026-05-06 15:13 | 49.22299 | 119.38935 | 24720 ft | 381 kts | 90° |
| 2026-05-06 15:13 | 49.22115 | 119.42995 | 24725 ft | 386 kts | 90° |
| 2026-05-06 15:14 | 49.21949 | 119.47119 | 24728 ft | 392 kts | 89° |
| 2026-05-06 15:14 | 49.21780 | 119.51334 | 24732 ft | 399 kts | 90° |
| 2026-05-06 15:14 | 49.21591 | 119.55595 | 24733 ft | 405 kts | 90° |
| 2026-05-06 15:14 | 49.21399 | 119.59920 | 24729 ft | 411 kts | 90° |
| 2026-05-06 15:15 | 49.21206 | 119.64252 | 24743 ft | 415 kts | 91° |
| 2026-05-06 15:15 | 49.21023 | 119.68677 | 24727 ft | 419 kts | 90° |
| 2026-05-06 15:15 | 49.20753 | 119.73123 | 24988 ft | 419 kts | 100° |
| 2026-05-06 15:15 | 49.19645 | 119.77229 | 25310 ft | 422 kts | 122° |
| 2026-05-06 15:16 | 49.17643 | 119.80493 | 25493 ft | 425 kts | 143° |
| 2026-05-06 15:16 | 49.15162 | 119.82944 | 25677 ft | 425 kts | 148° |
| 2026-05-06 15:16 | 49.12621 | 119.85270 | 25864 ft | 425 kts | 152° |
| 2026-05-06 15:16 | 49.09934 | 119.87148 | 26051 ft | 425 kts | 159° |
| 2026-05-06 15:17 | 49.07139 | 119.88618 | 26245 ft | 425 kts | 163° |
| 2026-05-06 15:17 | 49.04302 | 119.89892 | 26443 ft | 425 kts | 165° |
| 2026-05-06 15:17 | 49.01454 | 119.91089 | 26619 ft | 424 kts | 165° |
| 2026-05-06 15:17 | 48.98618 | 119.92297 | 26673 ft | 418 kts | 165° |
| 2026-05-06 15:18 | 48.95840 | 119.93508 | 26694 ft | 415 kts | 165° |
| 2026-05-06 15:18 | 48.93062 | 119.94723 | 26701 ft | 416 kts | 165° |
| 2026-05-06 15:18 | 48.90282 | 119.95944 | 26704 ft | 417 kts | 165° |
| 2026-05-06 15:18 | 48.87491 | 119.97210 | 26704 ft | 417 kts | 164° |
| 2026-05-06 15:19 | 48.84713 | 119.98479 | 26706 ft | 416 kts | 165° |
| 2026-05-06 15:19 | 48.81935 | 119.99712 | 26706 ft | 416 kts | 165° |
| 2026-05-06 15:19 | 48.79147 | 120.00943 | 26706 ft | 417 kts | 165° |
| 2026-05-06 15:19 | 48.76371 | 120.02203 | 26706 ft | 416 kts | 164° |
| 2026-05-06 15:20 | 48.73801 | 120.03358 | 26709 ft | 415 kts | 165° |
| 2026-05-06 15:20 | 48.71022 | 120.04579 | 26692 ft | 416 kts | 165° |
| 2026-05-06 15:20 | 48.68227 | 120.05829 | 26700 ft | 419 kts | 165° |
| 2026-05-06 15:20 | 48.65422 | 120.07095 | 26706 ft | 423 kts | 165° |
| 2026-05-06 15:21 | 48.62584 | 120.08366 | 26711 ft | 428 kts | 165° |
| 2026-05-06 15:21 | 48.59715 | 120.09643 | 26717 ft | 432 kts | 165° |
| 2026-05-06 15:21 | 48.56819 | 120.10929 | 26714 ft | 435 kts | 165° |
| 2026-05-06 15:21 | 48.53900 | 120.12224 | 26717 ft | 437 kts | 165° |
| 2026-05-06 15:22 | 48.50979 | 120.13516 | 26714 ft | 438 kts | 165° |
| 2026-05-06 15:22 | 48.48054 | 120.14809 | 26710 ft | 438 kts | 165° |
| 2026-05-06 15:22 | 48.45128 | 120.16100 | 26709 ft | 438 kts | 165° |
| 2026-05-06 15:22 | 48.42199 | 120.17391 | 26697 ft | 438 kts | 165° |
| 2026-05-06 15:23 | 48.39273 | 120.18681 | 26701 ft | 439 kts | 165° |
| 2026-05-06 15:23 | 48.36341 | 120.19976 | 26708 ft | 438 kts | 166° |
| 2026-05-06 15:23 | 48.33460 | 120.21243 | 26708 ft | 436 kts | 166° |
| 2026-05-06 15:23 | 48.30542 | 120.22513 | 26708 ft | 436 kts | 166° |
| 2026-05-06 15:24 | 48.27632 | 120.23775 | 26708 ft | 435 kts | 166° |
| 2026-05-06 15:24 | 48.24725 | 120.25031 | 26707 ft | 435 kts | 166° |
| 2026-05-06 15:24 | 48.21810 | 120.26290 | 26707 ft | 435 kts | 166° |
| 2026-05-06 15:24 | 48.18893 | 120.27547 | 26710 ft | 436 kts | 166° |
| 2026-05-06 15:25 | 48.15974 | 120.28808 | 26712 ft | 436 kts | 166° |
| 2026-05-06 15:25 | 48.13064 | 120.30102 | 26708 ft | 436 kts | 166° |
| 2026-05-06 15:25 | 48.10182 | 120.31358 | 26708 ft | 436 kts | 166° |
| 2026-05-06 15:25 | 48.07270 | 120.32616 | 26715 ft | 436 kts | 166° |
| 2026-05-06 15:26 | 48.04367 | 120.33891 | 26718 ft | 434 kts | 166° |
| 2026-05-06 15:26 | 48.01475 | 120.35166 | 26722 ft | 433 kts | 167° |
| 2026-05-06 15:26 | 47.98583 | 120.36407 | 26719 ft | 432 kts | 167° |
| 2026-05-06 15:26 | 47.96629 | 120.37239 | 26718 ft | 432 kts | 167° |
| 2026-05-06 15:27 | 47.92795 | 120.38878 | 26715 ft | 433 kts | 166° |
| 2026-05-06 15:27 | 47.89906 | 120.40153 | 26722 ft | 434 kts | 166° |
| 2026-05-06 15:27 | 47.87944 | 120.41003 | 26723 ft | 434 kts | 167° |
| 2026-05-06 15:27 | 47.85079 | 120.42221 | 26713 ft | 434 kts | 167° |
| 2026-05-06 15:28 | 47.82177 | 120.43455 | 26712 ft | 433 kts | 167° |
| 2026-05-06 15:28 | 47.79274 | 120.44686 | 26721 ft | 433 kts | 167° |
| 2026-05-06 15:28 | 47.76378 | 120.45955 | 26723 ft | 433 kts | 166° |
| 2026-05-06 15:28 | 47.73488 | 120.47199 | 26729 ft | 433 kts | 167° |
| 2026-05-06 15:29 | 47.70585 | 120.48431 | 26724 ft | 433 kts | 167° |
| 2026-05-06 15:29 | 47.67691 | 120.49684 | 26732 ft | 434 kts | 166° |
| 2026-05-06 15:29 | 47.64796 | 120.50952 | 26731 ft | 434 kts | 167° |
| 2026-05-06 15:29 | 47.61895 | 120.52184 | 26732 ft | 434 kts | 167° |
| 2026-05-06 15:30 | 47.58989 | 120.53413 | 26707 ft | 434 kts | 167° |
| 2026-05-06 15:30 | 47.56095 | 120.54658 | 26728 ft | 433 kts | 167° |
| 2026-05-06 15:30 | 47.53199 | 120.55890 | 26726 ft | 433 kts | 167° |
| 2026-05-06 15:30 | 47.50303 | 120.57121 | 26728 ft | 433 kts | 167° |
| 2026-05-06 15:31 | 47.47409 | 120.58348 | 26723 ft | 433 kts | 168° |
| 2026-05-06 15:31 | 47.44560 | 120.59588 | 26715 ft | 431 kts | 167° |
| 2026-05-06 15:31 | 47.41690 | 120.60837 | 26725 ft | 430 kts | 168° |
| 2026-05-06 15:32 | 47.35932 | 120.63272 | 26732 ft | 430 kts | 168° |
| 2026-05-06 15:32 | 47.33054 | 120.64479 | 26716 ft | 430 kts | 168° |
| 2026-05-06 15:32 | 47.30177 | 120.65725 | 26713 ft | 431 kts | 167° |
| 2026-05-06 15:32 | 47.27300 | 120.66964 | 26719 ft | 430 kts | 168° |
| 2026-05-06 15:33 | 47.24416 | 120.68169 | 26714 ft | 430 kts | 168° |
| 2026-05-06 15:33 | 47.21533 | 120.69379 | 26705 ft | 430 kts | 168° |
| 2026-05-06 15:33 | 47.18650 | 120.70609 | 26704 ft | 430 kts | 168° |
| 2026-05-06 15:33 | 47.15777 | 120.71830 | 26710 ft | 430 kts | 168° |
| 2026-05-06 15:34 | 47.12939 | 120.73043 | 26706 ft | 430 kts | 168° |
| 2026-05-06 15:34 | 47.10070 | 120.74263 | 26693 ft | 429 kts | 168° |
| 2026-05-06 15:34 | 47.07203 | 120.75484 | 26687 ft | 429 kts | 168° |
| 2026-05-06 15:34 | 47.04340 | 120.76698 | 26667 ft | 428 kts | 168° |
| 2026-05-06 15:35 | 47.01483 | 120.77922 | 26684 ft | 427 kts | 169° |
| 2026-05-06 15:35 | 46.98615 | 120.79102 | 26679 ft | 427 kts | 169° |
| 2026-05-06 15:35 | 46.95746 | 120.80286 | 26681 ft | 428 kts | 168° |
| 2026-05-06 15:35 | 46.92886 | 120.81494 | 26684 ft | 428 kts | 168° |
| 2026-05-06 15:36 | 46.90026 | 120.82706 | 26684 ft | 428 kts | 168° |
| 2026-05-06 15:36 | 46.87162 | 120.83920 | 26665 ft | 428 kts | 169° |
| 2026-05-06 15:36 | 46.84302 | 120.85112 | 26676 ft | 426 kts | 169° |
| 2026-05-06 15:36 | 46.81457 | 120.86297 | 26680 ft | 425 kts | 169° |
| 2026-05-06 15:37 | 46.78644 | 120.87457 | 26673 ft | 424 kts | 169° |
| 2026-05-06 15:37 | 46.75798 | 120.88629 | 26653 ft | 424 kts | 169° |
| 2026-05-06 15:37 | 46.72953 | 120.89792 | 26654 ft | 425 kts | 169° |
| 2026-05-06 15:37 | 46.70106 | 120.90953 | 26663 ft | 425 kts | 169° |
| 2026-05-06 15:38 | 46.67265 | 120.92146 | 26657 ft | 425 kts | 169° |
| 2026-05-06 15:38 | 46.64422 | 120.93340 | 26657 ft | 425 kts | 169° |
| 2026-05-06 15:38 | 46.61574 | 120.94519 | 26658 ft | 425 kts | 169° |
| 2026-05-06 15:38 | 46.58722 | 120.95690 | 26657 ft | 425 kts | 169° |
| 2026-05-06 15:39 | 46.55887 | 120.96858 | 26652 ft | 423 kts | 169° |
| 2026-05-06 15:39 | 46.53054 | 120.98040 | 26658 ft | 422 kts | 169° |
| 2026-05-06 15:39 | 46.50238 | 120.99216 | 26631 ft | 422 kts | 169° |
| 2026-05-06 15:39 | 46.47409 | 121.00391 | 26636 ft | 421 kts | 169° |
| 2026-05-06 15:40 | 46.44598 | 121.01574 | 26650 ft | 421 kts | 169° |
| 2026-05-06 15:40 | 46.41814 | 121.02709 | 26649 ft | 420 kts | 170° |
| 2026-05-06 15:40 | 46.38992 | 121.03832 | 26638 ft | 420 kts | 170° |
| 2026-05-06 15:40 | 46.36169 | 121.04966 | 26627 ft | 420 kts | 170° |
| 2026-05-06 15:41 | 46.33354 | 121.06138 | 26630 ft | 421 kts | 169° |
| 2026-05-06 15:41 | 46.30536 | 121.07324 | 26623 ft | 421 kts | 169° |
| 2026-05-06 15:41 | 46.27720 | 121.08512 | 26638 ft | 421 kts | 169° |
| 2026-05-06 15:41 | 46.24910 | 121.09685 | 26636 ft | 419 kts | 170° |
| 2026-05-06 15:42 | 46.22111 | 121.10832 | 26631 ft | 417 kts | 170° |
| 2026-05-06 15:42 | 46.19315 | 121.11980 | 26636 ft | 417 kts | 170° |
| 2026-05-06 15:42 | 46.16529 | 121.13133 | 26623 ft | 417 kts | 170° |
| 2026-05-06 15:42 | 46.13735 | 121.14321 | 26619 ft | 417 kts | 170° |
| 2026-05-06 15:43 | 46.10984 | 121.15469 | 26628 ft | 417 kts | 170° |
| 2026-05-06 15:43 | 46.08185 | 121.16621 | 26626 ft | 418 kts | 170° |
| 2026-05-06 15:43 | 46.05389 | 121.17778 | 26625 ft | 418 kts | 170° |
| 2026-05-06 15:43 | 46.02592 | 121.18958 | 26620 ft | 418 kts | 170° |
| 2026-05-06 15:44 | 45.99797 | 121.20103 | 26606 ft | 417 kts | 171° |
| 2026-05-06 15:44 | 45.97015 | 121.21269 | 26601 ft | 414 kts | 171° |
| 2026-05-06 15:44 | 45.94256 | 121.22418 | 26599 ft | 413 kts | 171° |
| 2026-05-06 15:44 | 45.91534 | 121.23841 | 26617 ft | 420 kts | 163° |
| 2026-05-06 15:45 | 45.88913 | 121.25739 | 26628 ft | 425 kts | 158° |
| 2026-05-06 15:45 | 45.86382 | 121.27871 | 26630 ft | 428 kts | 156° |
| 2026-05-06 15:45 | 45.83850 | 121.30128 | 26621 ft | 429 kts | 155° |
| 2026-05-06 15:45 | 45.81330 | 121.32411 | 26617 ft | 429 kts | 155° |
| 2026-05-06 15:46 | 45.78815 | 121.34716 | 26597 ft | 428 kts | 155° |
| 2026-05-06 15:46 | 45.76284 | 121.36966 | 26581 ft | 428 kts | 156° |
| 2026-05-06 15:46 | 45.73761 | 121.39239 | 26600 ft | 427 kts | 156° |
| 2026-05-06 15:46 | 45.71240 | 121.41475 | 26604 ft | 426 kts | 157° |
| 2026-05-06 15:47 | 45.68709 | 121.43691 | 26608 ft | 426 kts | 157° |
| 2026-05-06 15:47 | 45.66178 | 121.45892 | 26594 ft | 425 kts | 158° |
| 2026-05-06 15:47 | 45.63656 | 121.48090 | 26598 ft | 424 kts | 158° |
| 2026-05-06 15:47 | 45.61128 | 121.50275 | 26596 ft | 424 kts | 158° |
| 2026-05-06 15:48 | 45.58606 | 121.52465 | 26597 ft | 425 kts | 158° |
| 2026-05-06 15:48 | 45.56081 | 121.54663 | 26604 ft | 425 kts | 158° |
| 2026-05-06 15:48 | 45.53556 | 121.56865 | 26589 ft | 426 kts | 158° |
| 2026-05-06 15:48 | 45.51031 | 121.59080 | 26595 ft | 426 kts | 158° |
| 2026-05-06 15:49 | 45.48487 | 121.61277 | 26590 ft | 427 kts | 158° |
| 2026-05-06 15:49 | 45.45946 | 121.63466 | 26595 ft | 427 kts | 158° |
| 2026-05-06 15:49 | 45.43406 | 121.65666 | 26597 ft | 428 kts | 158° |
| 2026-05-06 15:49 | 45.40872 | 121.67892 | 26591 ft | 427 kts | 158° |
| 2026-05-06 15:50 | 45.38363 | 121.70059 | 26590 ft | 427 kts | 158° |
| 2026-05-06 15:50 | 45.35823 | 121.72241 | 26573 ft | 426 kts | 158° |
| 2026-05-06 15:50 | 45.33289 | 121.74426 | 26559 ft | 426 kts | 158° |
| 2026-05-06 15:50 | 45.30758 | 121.76643 | 26573 ft | 428 kts | 158° |
| 2026-05-06 15:51 | 45.28208 | 121.78858 | 26584 ft | 430 kts | 158° |
| 2026-05-06 15:51 | 45.25643 | 121.81043 | 26586 ft | 431 kts | 158° |
| 2026-05-06 15:51 | 45.23084 | 121.83249 | 26588 ft | 433 kts | 158° |
| 2026-05-06 15:51 | 45.20509 | 121.85476 | 26589 ft | 432 kts | 158° |
| 2026-05-06 15:52 | 45.17931 | 121.87665 | 26588 ft | 431 kts | 158° |
| 2026-05-06 15:52 | 45.15358 | 121.89864 | 26585 ft | 431 kts | 158° |
| 2026-05-06 15:52 | 45.12808 | 121.92072 | 26586 ft | 431 kts | 158° |
| 2026-05-06 15:52 | 45.10232 | 121.94263 | 26591 ft | 431 kts | 158° |
| 2026-05-06 15:53 | 45.07660 | 121.96440 | 26592 ft | 431 kts | 158° |
| 2026-05-06 15:53 | 45.05092 | 121.98651 | 26583 ft | 432 kts | 158° |
| 2026-05-06 15:53 | 45.02562 | 122.00831 | 26576 ft | 431 kts | 158° |
| 2026-05-06 15:53 | 44.99991 | 122.03016 | 26583 ft | 430 kts | 158° |
| 2026-05-06 15:54 | 44.97428 | 122.05170 | 26591 ft | 431 kts | 158° |
| 2026-05-06 15:54 | 44.94852 | 122.07370 | 26592 ft | 432 kts | 158° |
| 2026-05-06 15:54 | 44.92283 | 122.09568 | 26592 ft | 431 kts | 158° |
| 2026-05-06 15:54 | 44.89709 | 122.11732 | 26575 ft | 431 kts | 158° |
| 2026-05-06 15:55 | 44.87133 | 122.13912 | 26584 ft | 432 kts | 158° |
| 2026-05-06 15:55 | 44.84555 | 122.16099 | 26588 ft | 433 kts | 158° |
| 2026-05-06 15:55 | 44.81971 | 122.18295 | 26595 ft | 434 kts | 158° |
| 2026-05-06 15:55 | 44.79384 | 122.20491 | 26583 ft | 433 kts | 158° |
| 2026-05-06 15:56 | 44.76798 | 122.22685 | 26589 ft | 433 kts | 158° |
| 2026-05-06 15:56 | 44.74220 | 122.24873 | 26571 ft | 433 kts | 158° |
| 2026-05-06 15:56 | 44.71649 | 122.27063 | 26572 ft | 433 kts | 158° |
| 2026-05-06 15:56 | 44.69073 | 122.29268 | 26548 ft | 433 kts | 158° |
| 2026-05-06 15:57 | 44.66533 | 122.31455 | 26566 ft | 434 kts | 159° |
| 2026-05-06 15:57 | 44.63945 | 122.33638 | 26571 ft | 434 kts | 159° |
| 2026-05-06 15:57 | 44.61349 | 122.35799 | 26574 ft | 433 kts | 159° |
| 2026-05-06 15:57 | 44.58758 | 122.37954 | 26579 ft | 434 kts | 159° |
| 2026-05-06 15:58 | 44.56174 | 122.40141 | 26577 ft | 434 kts | 159° |
| 2026-05-06 15:58 | 44.53589 | 122.42339 | 26578 ft | 433 kts | 159° |
| 2026-05-06 15:58 | 44.50997 | 122.44505 | 26578 ft | 433 kts | 159° |
| 2026-05-06 15:58 | 44.48405 | 122.46657 | 26578 ft | 433 kts | 159° |
| 2026-05-06 15:59 | 44.45826 | 122.48840 | 26553 ft | 434 kts | 160° |
| 2026-05-06 15:59 | 44.43241 | 122.51019 | 26565 ft | 433 kts | 160° |
| 2026-05-06 15:59 | 44.40650 | 122.53180 | 26577 ft | 433 kts | 160° |
| 2026-05-06 15:59 | 44.38058 | 122.55332 | 26572 ft | 433 kts | 161° |
| 2026-05-06 16:00 | 44.35469 | 122.57479 | 26579 ft | 433 kts | 160° |
| 2026-05-06 16:00 | 44.32877 | 122.59627 | 26575 ft | 433 kts | 161° |
| 2026-05-06 16:00 | 44.30285 | 122.61772 | 26579 ft | 433 kts | 161° |
| 2026-05-06 16:00 | 44.27701 | 122.63914 | 26578 ft | 433 kts | 160° |
| 2026-05-06 16:01 | 44.25117 | 122.66095 | 26557 ft | 433 kts | 161° |
| 2026-05-06 16:01 | 44.22550 | 122.68285 | 26568 ft | 432 kts | 161° |
| 2026-05-06 16:01 | 44.20025 | 122.70442 | 26574 ft | 431 kts | 161° |
| 2026-05-06 16:01 | 44.17470 | 122.72628 | 26574 ft | 431 kts | 161° |
| 2026-05-06 16:02 | 44.14913 | 122.74816 | 26578 ft | 431 kts | 161° |
| 2026-05-06 16:02 | 44.12361 | 122.77003 | 26561 ft | 431 kts | 161° |
| 2026-05-06 16:02 | 44.09820 | 122.79199 | 26571 ft | 430 kts | 161° |
| 2026-05-06 16:02 | 44.07271 | 122.81400 | 26575 ft | 430 kts | 161° |
| 2026-05-06 16:03 | 44.04733 | 122.83601 | 26552 ft | 429 kts | 161° |
| 2026-05-06 16:03 | 44.02197 | 122.85783 | 26569 ft | 428 kts | 161° |
| 2026-05-06 16:03 | 43.99657 | 122.87930 | 26578 ft | 428 kts | 161° |
| 2026-05-06 16:03 | 43.97103 | 122.90092 | 26584 ft | 429 kts | 161° |
| 2026-05-06 16:04 | 43.94564 | 122.92277 | 26583 ft | 429 kts | 161° |
| 2026-05-06 16:04 | 43.92022 | 122.94434 | 26583 ft | 428 kts | 161° |
| 2026-05-06 16:04 | 43.89475 | 122.96577 | 26589 ft | 428 kts | 161° |
| 2026-05-06 16:04 | 43.86923 | 122.98716 | 26590 ft | 428 kts | 162° |
| 2026-05-06 16:05 | 43.84375 | 123.00847 | 26559 ft | 429 kts | 161° |
| 2026-05-06 16:05 | 43.81816 | 123.02983 | 26560 ft | 430 kts | 162° |
| 2026-05-06 16:05 | 43.79251 | 123.05121 | 26584 ft | 431 kts | 162° |
| 2026-05-06 16:05 | 43.76681 | 123.07259 | 26586 ft | 431 kts | 162° |
| 2026-05-06 16:06 | 43.74114 | 123.09394 | 26590 ft | 431 kts | 162° |
| 2026-05-06 16:06 | 43.71542 | 123.11531 | 26588 ft | 430 kts | 162° |
| 2026-05-06 16:06 | 43.68978 | 123.13662 | 26587 ft | 430 kts | 162° |
| 2026-05-06 16:06 | 43.66419 | 123.15789 | 26586 ft | 430 kts | 162° |
| 2026-05-06 16:07 | 43.63882 | 123.17894 | 26570 ft | 431 kts | 162° |
| 2026-05-06 16:07 | 43.61310 | 123.20026 | 26581 ft | 431 kts | 162° |
| 2026-05-06 16:07 | 43.58736 | 123.22156 | 26587 ft | 432 kts | 162° |
| 2026-05-06 16:07 | 43.56168 | 123.24311 | 26589 ft | 433 kts | 161° |
| 2026-05-06 16:08 | 43.53608 | 123.26488 | 26570 ft | 433 kts | 161° |
| 2026-05-06 16:08 | 43.51046 | 123.28636 | 26575 ft | 431 kts | 161° |
| 2026-05-06 16:08 | 43.48481 | 123.30771 | 26580 ft | 430 kts | 161° |
| 2026-05-06 16:08 | 43.45915 | 123.32900 | 26585 ft | 430 kts | 162° |
| 2026-05-06 16:09 | 43.43353 | 123.35022 | 26569 ft | 431 kts | 161° |
| 2026-05-06 16:09 | 43.40785 | 123.37183 | 26575 ft | 432 kts | 161° |
| 2026-05-06 16:09 | 43.38236 | 123.39337 | 26580 ft | 432 kts | 161° |
| 2026-05-06 16:09 | 43.35653 | 123.41483 | 26583 ft | 431 kts | 161° |
| 2026-05-06 16:10 | 43.33080 | 123.43601 | 26580 ft | 431 kts | 161° |
| 2026-05-06 16:10 | 43.30511 | 123.45728 | 26579 ft | 432 kts | 161° |
| 2026-05-06 16:10 | 43.27950 | 123.47879 | 26583 ft | 431 kts | 161° |
| 2026-05-06 16:10 | 43.25380 | 123.50001 | 26581 ft | 431 kts | 161° |
| 2026-05-06 16:11 | 43.22811 | 123.52112 | 26556 ft | 431 kts | 161° |
| 2026-05-06 16:11 | 43.20249 | 123.54237 | 26568 ft | 431 kts | 161° |
| 2026-05-06 16:11 | 43.17683 | 123.56368 | 26575 ft | 432 kts | 161° |
| 2026-05-06 16:11 | 43.15109 | 123.58508 | 26574 ft | 432 kts | 161° |
| 2026-05-06 16:12 | 43.12541 | 123.60644 | 26576 ft | 432 kts | 161° |
| 2026-05-06 16:12 | 43.09975 | 123.62776 | 26576 ft | 432 kts | 161° |
| 2026-05-06 16:12 | 43.07405 | 123.64881 | 26575 ft | 431 kts | 161° |
| 2026-05-06 16:12 | 43.04850 | 123.66953 | 26577 ft | 431 kts | 161° |
| 2026-05-06 16:13 | 43.02285 | 123.69069 | 26574 ft | 431 kts | 161° |
| 2026-05-06 16:13 | 42.99714 | 123.71194 | 26570 ft | 432 kts | 161° |
| 2026-05-06 16:13 | 42.97147 | 123.73317 | 26570 ft | 431 kts | 161° |
| 2026-05-06 16:13 | 42.94569 | 123.75402 | 26570 ft | 431 kts | 161° |
| 2026-05-06 16:14 | 42.91992 | 123.77489 | 26558 ft | 431 kts | 161° |
| 2026-05-06 16:14 | 42.89420 | 123.79593 | 26566 ft | 431 kts | 161° |
| 2026-05-06 16:14 | 42.86852 | 123.81698 | 26571 ft | 431 kts | 161° |
| 2026-05-06 16:14 | 42.84274 | 123.83809 | 26550 ft | 431 kts | 161° |
| 2026-05-06 16:15 | 42.81701 | 123.85903 | 26560 ft | 431 kts | 161° |
| 2026-05-06 16:15 | 42.79128 | 123.87995 | 26563 ft | 431 kts | 161° |
| 2026-05-06 16:15 | 42.76551 | 123.90084 | 26562 ft | 431 kts | 161° |
| 2026-05-06 16:15 | 42.73973 | 123.92176 | 26563 ft | 431 kts | 161° |
| 2026-05-06 16:16 | 42.72267 | 123.93557 | 26566 ft | 431 kts | 161° |
| 2026-05-06 16:16 | 42.69691 | 123.95645 | 26562 ft | 431 kts | 161° |
| 2026-05-06 16:16 | 42.67096 | 123.97649 | 26556 ft | 422 kts | 167° |
| 2026-05-06 16:16 | 42.63485 | 123.99449 | 26528 ft | 412 kts | 172° |
| 2026-05-06 16:17 | 42.61681 | 124.00271 | 26540 ft | 410 kts | 174° |
| 2026-05-06 16:17 | 42.58941 | 124.01209 | 26558 ft | 402 kts | 180° |
| 2026-05-06 16:17 | 42.56191 | 124.01771 | 26561 ft | 397 kts | 184° |
| 2026-05-06 16:17 | 42.53457 | 124.02137 | 26560 ft | 394 kts | 186° |
| 2026-05-06 16:18 | 42.50727 | 124.02432 | 26557 ft | 393 kts | 186° |
| 2026-05-06 16:18 | 42.47997 | 124.02710 | 26550 ft | 393 kts | 186° |
| 2026-05-06 16:18 | 42.45267 | 124.03003 | 26551 ft | 393 kts | 186° |
| 2026-05-06 16:18 | 42.42541 | 124.03316 | 26542 ft | 394 kts | 185° |
| 2026-05-06 16:19 | 42.39810 | 124.03661 | 26809 ft | 391 kts | 185° |
| 2026-05-06 16:19 | 42.37132 | 124.04020 | 27258 ft | 383 kts | 185° |
| 2026-05-06 16:19 | 42.34524 | 124.04351 | 27448 ft | 382 kts | 186° |
| 2026-05-06 16:19 | 42.31878 | 124.04667 | 27517 ft | 382 kts | 186° |
| 2026-05-06 16:20 | 42.29234 | 124.04981 | 27535 ft | 379 kts | 186° |
| 2026-05-06 16:20 | 42.26609 | 124.05310 | 27542 ft | 379 kts | 185° |
| 2026-05-06 16:20 | 42.23979 | 124.05651 | 27545 ft | 380 kts | 186° |
| 2026-05-06 16:20 | 42.21350 | 124.05973 | 27531 ft | 380 kts | 186° |
| 2026-05-06 16:21 | 42.18715 | 124.06321 | 27524 ft | 380 kts | 185° |
| 2026-05-06 16:21 | 42.16078 | 124.06666 | 27537 ft | 382 kts | 186° |
| 2026-05-06 16:21 | 42.13421 | 124.06993 | 27547 ft | 386 kts | 185° |
| 2026-05-06 16:21 | 42.10739 | 124.07343 | 27550 ft | 387 kts | 185° |
| 2026-05-06 16:22 | 42.08061 | 124.07702 | 27535 ft | 386 kts | 186° |
| 2026-05-06 16:22 | 42.05396 | 124.08031 | 27552 ft | 385 kts | 186° |
| 2026-05-06 16:22 | 42.02726 | 124.08339 | 27548 ft | 385 kts | 186° |
| 2026-05-06 16:22 | 42.00052 | 124.08671 | 27548 ft | 387 kts | 185° |
| 2026-05-06 16:23 | 41.97367 | 124.09024 | 27545 ft | 388 kts | 185° |
| 2026-05-06 16:23 | 41.94678 | 124.09379 | 27549 ft | 388 kts | 185° |
| 2026-05-06 16:23 | 41.91991 | 124.09702 | 27547 ft | 388 kts | 186° |
| 2026-05-06 16:23 | 41.89297 | 124.10036 | 27545 ft | 389 kts | 185° |
| 2026-05-06 16:24 | 41.86616 | 124.10387 | 27537 ft | 389 kts | 185° |
| 2026-05-06 16:24 | 41.83911 | 124.10717 | 27539 ft | 388 kts | 186° |
| 2026-05-06 16:24 | 41.81219 | 124.11042 | 27502 ft | 389 kts | 186° |
| 2026-05-06 16:24 | 41.78515 | 124.11398 | 27521 ft | 391 kts | 185° |
| 2026-05-06 16:25 | 41.75805 | 124.11766 | 27531 ft | 392 kts | 185° |
| 2026-05-06 16:25 | 41.73090 | 124.12131 | 27538 ft | 392 kts | 186° |
| 2026-05-06 16:25 | 41.70370 | 124.12461 | 27529 ft | 392 kts | 186° |
| 2026-05-06 16:25 | 41.67685 | 124.12803 | 27549 ft | 393 kts | 185° |
| 2026-05-06 16:26 | 41.64969 | 124.13165 | 27550 ft | 393 kts | 185° |
| 2026-05-06 16:26 | 41.62250 | 124.13524 | 27553 ft | 392 kts | 185° |
| 2026-05-06 16:26 | 41.59528 | 124.13857 | 27547 ft | 393 kts | 186° |
| 2026-05-06 16:26 | 41.56809 | 124.14206 | 27511 ft | 393 kts | 185° |
| 2026-05-06 16:27 | 41.54083 | 124.14557 | 27504 ft | 395 kts | 185° |
| 2026-05-06 16:27 | 41.51344 | 124.14901 | 27550 ft | 397 kts | 185° |
| 2026-05-06 16:27 | 41.48584 | 124.15243 | 27537 ft | 400 kts | 185° |
| 2026-05-06 16:27 | 41.45812 | 124.15609 | 27533 ft | 401 kts | 185° |
| 2026-05-06 16:28 | 41.43046 | 124.15841 | 27532 ft | 389 kts | 194° |
| 2026-05-06 16:28 | 41.40458 | 124.15156 | 27463 ft | 376 kts | 204° |
| 2026-05-06 16:28 | 41.37998 | 124.14058 | 27464 ft | 370 kts | 210° |
| 2026-05-06 16:28 | 41.35665 | 124.12650 | 27458 ft | 366 kts | 214° |
| 2026-05-06 16:29 | 41.33414 | 124.11072 | 27528 ft | 366 kts | 216° |
| 2026-05-06 16:29 | 41.31188 | 124.09436 | 27525 ft | 367 kts | 216° |
| 2026-05-06 16:29 | 41.28951 | 124.07790 | 27504 ft | 366 kts | 217° |
| 2026-05-06 16:29 | 41.26721 | 124.06150 | 27435 ft | 366 kts | 216° |
| 2026-05-06 16:30 | 41.24492 | 124.04512 | 27440 ft | 364 kts | 217° |
| 2026-05-06 16:30 | 41.23053 | 124.03387 | 27441 ft | 364 kts | 217° |
| 2026-05-06 16:30 | 41.20090 | 124.01180 | 27483 ft | 365 kts | 216° |
| 2026-05-06 16:30 | 41.17842 | 123.99578 | 27533 ft | 368 kts | 214° |
| 2026-05-06 16:31 | 41.15568 | 123.98009 | 27549 ft | 368 kts | 215° |
| 2026-05-06 16:31 | 41.13301 | 123.96418 | 27561 ft | 368 kts | 215° |
| 2026-05-06 16:31 | 41.11072 | 123.94840 | 27522 ft | 367 kts | 216° |
| 2026-05-06 16:31 | 41.08822 | 123.93228 | 27508 ft | 367 kts | 216° |
| 2026-05-06 16:32 | 41.06580 | 123.91615 | 27469 ft | 368 kts | 215° |
| 2026-05-06 16:32 | 41.04328 | 123.89997 | 27465 ft | 367 kts | 216° |
| 2026-05-06 16:32 | 41.02091 | 123.88341 | 27477 ft | 368 kts | 216° |
| 2026-05-06 16:32 | 40.99842 | 123.86719 | 27507 ft | 369 kts | 215° |
| 2026-05-06 16:33 | 40.97572 | 123.85105 | 27551 ft | 372 kts | 215° |
| 2026-05-06 16:33 | 40.95291 | 123.83481 | 27540 ft | 372 kts | 216° |
| 2026-05-06 16:33 | 40.93021 | 123.81842 | 27537 ft | 371 kts | 215° |
| 2026-05-06 16:34 | 40.88512 | 123.78644 | 27526 ft | 370 kts | 215° |
| 2026-05-06 16:34 | 40.86242 | 123.77041 | 27519 ft | 370 kts | 215° |
| 2026-05-06 16:34 | 40.83978 | 123.75432 | 27495 ft | 370 kts | 215° |
| 2026-05-06 16:34 | 40.81716 | 123.73815 | 27476 ft | 368 kts | 216° |
| 2026-05-06 16:35 | 40.79469 | 123.72184 | 27475 ft | 367 kts | 216° |
| 2026-05-06 16:35 | 40.77253 | 123.70505 | 27507 ft | 368 kts | 217° |
| 2026-05-06 16:35 | 40.75030 | 123.68826 | 27508 ft | 369 kts | 216° |
| 2026-05-06 16:35 | 40.72781 | 123.67185 | 27511 ft | 369 kts | 216° |
| 2026-05-06 16:36 | 40.70531 | 123.65544 | 27524 ft | 369 kts | 216° |
| 2026-05-06 16:36 | 40.68290 | 123.63907 | 27527 ft | 369 kts | 216° |
| 2026-05-06 16:36 | 40.66044 | 123.62262 | 27534 ft | 370 kts | 216° |
| 2026-05-06 16:36 | 40.63784 | 123.60619 | 27531 ft | 371 kts | 216° |
| 2026-05-06 16:37 | 40.61533 | 123.58979 | 27530 ft | 370 kts | 216° |
| 2026-05-06 16:37 | 40.59316 | 123.57343 | 27517 ft | 370 kts | 216° |
| 2026-05-06 16:37 | 40.57076 | 123.55701 | 27524 ft | 369 kts | 216° |
| 2026-05-06 16:37 | 40.54831 | 123.54065 | 27522 ft | 368 kts | 216° |
| 2026-05-06 16:38 | 40.52590 | 123.52424 | 27520 ft | 368 kts | 216° |
| 2026-05-06 16:38 | 40.50352 | 123.50780 | 27521 ft | 369 kts | 216° |
| 2026-05-06 16:38 | 40.48099 | 123.49153 | 27538 ft | 368 kts | 216° |
| 2026-05-06 16:38 | 40.45860 | 123.47530 | 27512 ft | 366 kts | 216° |
| 2026-05-06 16:39 | 40.43628 | 123.45894 | 27515 ft | 369 kts | 216° |
| 2026-05-06 16:39 | 40.41376 | 123.44255 | 27520 ft | 372 kts | 216° |
| 2026-05-06 16:39 | 40.39107 | 123.42605 | 27517 ft | 373 kts | 216° |
| 2026-05-06 16:39 | 40.36831 | 123.40960 | 27525 ft | 374 kts | 216° |
| 2026-05-06 16:40 | 40.34554 | 123.39306 | 27524 ft | 374 kts | 216° |
| 2026-05-06 16:40 | 40.32274 | 123.37659 | 27529 ft | 374 kts | 216° |
| 2026-05-06 16:40 | 40.29995 | 123.36023 | 27530 ft | 373 kts | 216° |
| 2026-05-06 16:40 | 40.27719 | 123.34389 | 27529 ft | 373 kts | 216° |
| 2026-05-06 16:41 | 40.25480 | 123.32771 | 27501 ft | 373 kts | 216° |
| 2026-05-06 16:41 | 40.23213 | 123.31133 | 27512 ft | 373 kts | 216° |
| 2026-05-06 16:41 | 40.20934 | 123.29482 | 27517 ft | 374 kts | 216° |
| 2026-05-06 16:41 | 40.18657 | 123.27833 | 27527 ft | 374 kts | 216° |
| 2026-05-06 16:42 | 40.16377 | 123.26185 | 27520 ft | 374 kts | 216° |
| 2026-05-06 16:42 | 40.14094 | 123.24534 | 27515 ft | 374 kts | 216° |
| 2026-05-06 16:42 | 40.11817 | 123.22894 | 27512 ft | 373 kts | 216° |
| 2026-05-06 16:42 | 40.09542 | 123.21260 | 27530 ft | 374 kts | 216° |
| 2026-05-06 16:43 | 40.07302 | 123.19625 | 27546 ft | 374 kts | 216° |
| 2026-05-06 16:43 | 40.05024 | 123.17976 | 27527 ft | 374 kts | 216° |
| 2026-05-06 16:43 | 40.02743 | 123.16338 | 27517 ft | 374 kts | 216° |
| 2026-05-06 16:43 | 40.00470 | 123.14695 | 27518 ft | 373 kts | 216° |
| 2026-05-06 16:44 | 39.98201 | 123.13058 | 27506 ft | 373 kts | 216° |
| 2026-05-06 16:44 | 39.95928 | 123.11419 | 27510 ft | 373 kts | 216° |
| 2026-05-06 16:44 | 39.93660 | 123.09773 | 27535 ft | 372 kts | 216° |
| 2026-05-06 16:44 | 39.91407 | 123.08130 | 27517 ft | 370 kts | 216° |
| 2026-05-06 16:45 | 39.89164 | 123.06489 | 27512 ft | 370 kts | 216° |
| 2026-05-06 16:45 | 39.86916 | 123.04854 | 27510 ft | 370 kts | 216° |
| 2026-05-06 16:45 | 39.84663 | 123.03220 | 27508 ft | 370 kts | 216° |
| 2026-05-06 16:45 | 39.82414 | 123.01583 | 27506 ft | 370 kts | 216° |
| 2026-05-06 16:46 | 39.80167 | 122.99945 | 27510 ft | 370 kts | 216° |
| 2026-05-06 16:46 | 39.77914 | 122.98307 | 27493 ft | 372 kts | 216° |
| 2026-05-06 16:46 | 39.75641 | 122.96666 | 27497 ft | 374 kts | 215° |
| 2026-05-06 16:46 | 39.73356 | 122.95035 | 27498 ft | 375 kts | 216° |
| 2026-05-06 16:47 | 39.71077 | 122.93384 | 27495 ft | 375 kts | 216° |
| 2026-05-06 16:47 | 39.68795 | 122.91740 | 27504 ft | 375 kts | 216° |
| 2026-05-06 16:47 | 39.66515 | 122.90096 | 27504 ft | 375 kts | 216° |
| 2026-05-06 16:47 | 39.64237 | 122.88459 | 27500 ft | 372 kts | 215° |
| 2026-05-06 16:48 | 39.61966 | 122.86850 | 27500 ft | 373 kts | 215° |
| 2026-05-06 16:48 | 39.59700 | 122.85214 | 27503 ft | 374 kts | 216° |
| 2026-05-06 16:48 | 39.57414 | 122.83581 | 27498 ft | 375 kts | 215° |
| 2026-05-06 16:48 | 39.55128 | 122.81941 | 27504 ft | 374 kts | 216° |
| 2026-05-06 16:49 | 39.52853 | 122.80302 | 27505 ft | 374 kts | 215° |
| 2026-05-06 16:49 | 39.50569 | 122.78676 | 27495 ft | 374 kts | 216° |
| 2026-05-06 16:49 | 39.48298 | 122.77035 | 27466 ft | 374 kts | 215° |
| 2026-05-06 16:49 | 39.46015 | 122.75396 | 27490 ft | 377 kts | 215° |
| 2026-05-06 16:50 | 39.43719 | 122.73744 | 27495 ft | 379 kts | 215° |
| 2026-05-06 16:50 | 39.41400 | 122.72102 | 27499 ft | 381 kts | 214° |
| 2026-05-06 16:50 | 39.39106 | 122.70465 | 27497 ft | 380 kts | 215° |
| 2026-05-06 16:50 | 39.36792 | 122.68806 | 27496 ft | 380 kts | 215° |
| 2026-05-06 16:51 | 39.34477 | 122.67162 | 27496 ft | 379 kts | 215° |
| 2026-05-06 16:51 | 39.32169 | 122.65509 | 27481 ft | 380 kts | 214° |
| 2026-05-06 16:51 | 39.29847 | 122.63854 | 27488 ft | 382 kts | 214° |
| 2026-05-06 16:51 | 39.27511 | 122.62202 | 27495 ft | 383 kts | 214° |
| 2026-05-06 16:52 | 39.25200 | 122.60523 | 27501 ft | 378 kts | 216° |
| 2026-05-06 16:52 | 39.22968 | 122.58757 | 27497 ft | 377 kts | 217° |
| 2026-05-06 16:52 | 39.20743 | 122.56948 | 27496 ft | 377 kts | 218° |
| 2026-05-06 16:52 | 39.18532 | 122.55139 | 27493 ft | 378 kts | 217° |
| 2026-05-06 16:53 | 39.16300 | 122.53339 | 27470 ft | 379 kts | 217° |
| 2026-05-06 16:53 | 39.14052 | 122.51537 | 27476 ft | 382 kts | 216° |
| 2026-05-06 16:53 | 39.11788 | 122.49739 | 27488 ft | 384 kts | 216° |
| 2026-05-06 16:53 | 39.09501 | 122.47929 | 27487 ft | 385 kts | 216° |
| 2026-05-06 16:54 | 39.07222 | 122.46130 | 27489 ft | 385 kts | 216° |
| 2026-05-06 16:54 | 39.04937 | 122.44321 | 27489 ft | 384 kts | 217° |
| 2026-05-06 16:54 | 39.02676 | 122.42505 | 27486 ft | 383 kts | 216° |
| 2026-05-06 16:54 | 39.00405 | 122.40704 | 27479 ft | 383 kts | 217° |
| 2026-05-06 16:55 | 38.98143 | 122.38887 | 27489 ft | 384 kts | 217° |
| 2026-05-06 16:55 | 38.95870 | 122.37064 | 27491 ft | 385 kts | 217° |
| 2026-05-06 16:55 | 38.93587 | 122.35266 | 27489 ft | 385 kts | 216° |
| 2026-05-06 16:55 | 38.91306 | 122.33467 | 27496 ft | 385 kts | 216° |
| 2026-05-06 16:56 | 38.89030 | 122.31665 | 27495 ft | 385 kts | 216° |
| 2026-05-06 16:56 | 38.86776 | 122.29883 | 27493 ft | 385 kts | 216° |
| 2026-05-06 16:56 | 38.84499 | 122.28083 | 27481 ft | 385 kts | 217° |
| 2026-05-06 16:56 | 38.82224 | 122.26267 | 27491 ft | 385 kts | 217° |
| 2026-05-06 16:57 | 38.79941 | 122.24467 | 27492 ft | 386 kts | 217° |
| 2026-05-06 16:57 | 38.77626 | 122.22651 | 27492 ft | 386 kts | 217° |
| 2026-05-06 16:57 | 38.75376 | 122.20865 | 27493 ft | 386 kts | 217° |
| 2026-05-06 16:57 | 38.73082 | 122.19072 | 27493 ft | 385 kts | 217° |
| 2026-05-06 16:58 | 38.71044 | 122.16938 | 27500 ft | 375 kts | 235° |
| 2026-05-06 16:58 | 38.69677 | 122.14136 | 27498 ft | 371 kts | 242° |
| 2026-05-06 16:58 | 38.68453 | 122.11233 | 27500 ft | 369 kts | 246° |
| 2026-05-06 16:58 | 38.67463 | 122.08200 | 27499 ft | 368 kts | 251° |
| 2026-05-06 16:59 | 38.66652 | 122.05083 | 27504 ft | 371 kts | 253° |
| 2026-05-06 16:59 | 38.65919 | 122.01909 | 27498 ft | 373 kts | 253° |
| 2026-05-06 16:59 | 38.65215 | 121.98708 | 27496 ft | 374 kts | 254° |
| 2026-05-06 16:59 | 38.64529 | 121.95496 | 27495 ft | 374 kts | 254° |
| 2026-05-06 17:00 | 38.63850 | 121.92289 | 27495 ft | 374 kts | 254° |
| 2026-05-06 17:00 | 38.63152 | 121.89081 | 27495 ft | 373 kts | 254° |
| 2026-05-06 17:00 | 38.62447 | 121.85895 | 27495 ft | 372 kts | 254° |
| 2026-05-06 17:00 | 38.61740 | 121.82715 | 27494 ft | 372 kts | 253° |
| 2026-05-06 17:01 | 38.61029 | 121.79529 | 27500 ft | 372 kts | 253° |
| 2026-05-06 17:01 | 38.60313 | 121.76337 | 27495 ft | 374 kts | 253° |
| 2026-05-06 17:01 | 38.59588 | 121.73178 | 27496 ft | 375 kts | 253° |
| 2026-05-06 17:01 | 38.58848 | 121.69936 | 27495 ft | 375 kts | 253° |
| 2026-05-06 17:02 | 38.58131 | 121.66731 | 27495 ft | 375 kts | 253° |
| 2026-05-06 17:02 | 38.57400 | 121.63532 | 27495 ft | 375 kts | 253° |
| 2026-05-06 17:02 | 38.56690 | 121.60369 | 27501 ft | 375 kts | 253° |
| 2026-05-06 17:02 | 38.55957 | 121.57173 | 27501 ft | 374 kts | 253° |
| 2026-05-06 17:03 | 38.55237 | 121.53976 | 27500 ft | 375 kts | 253° |
| 2026-05-06 17:03 | 38.54506 | 121.50792 | 27509 ft | 371 kts | 252° |
| 2026-05-06 17:03 | 38.53791 | 121.47654 | 27507 ft | 367 kts | 252° |
| 2026-05-06 17:03 | 38.53078 | 121.44527 | 27493 ft | 367 kts | 253° |
| 2026-05-06 17:04 | 38.52363 | 121.41380 | 27493 ft | 370 kts | 253° |
| 2026-05-06 17:04 | 38.51892 | 121.39279 | 27506 ft | 372 kts | 253° |
| 2026-05-06 17:04 | 38.51163 | 121.36106 | 27510 ft | 373 kts | 253° |
| 2026-05-06 17:04 | 38.50432 | 121.32928 | 27512 ft | 373 kts | 253° |
| 2026-05-06 17:05 | 38.49454 | 121.28673 | 27514 ft | 373 kts | 253° |
| 2026-05-06 17:05 | 38.48967 | 121.26568 | 27513 ft | 373 kts | 253° |
| 2026-05-06 17:05 | 38.48243 | 121.23396 | 27522 ft | 370 kts | 252° |
| 2026-05-06 17:05 | 38.47530 | 121.20270 | 27516 ft | 366 kts | 252° |
| 2026-05-06 17:06 | 38.46823 | 121.17155 | 27520 ft | 365 kts | 252° |
| 2026-05-06 17:06 | 38.45888 | 121.14180 | 27524 ft | 365 kts | 243° |
| 2026-05-06 17:06 | 38.44657 | 121.11345 | 27521 ft | 366 kts | 240° |
| 2026-05-06 17:06 | 38.43337 | 121.08562 | 27493 ft | 367 kts | 239° |
| 2026-05-06 17:07 | 38.41958 | 121.05805 | 27512 ft | 370 kts | 239° |
| 2026-05-06 17:07 | 38.40556 | 121.03031 | 27520 ft | 373 kts | 239° |
| 2026-05-06 17:07 | 38.39150 | 121.00250 | 27523 ft | 374 kts | 239° |
| 2026-05-06 17:07 | 38.37757 | 120.97444 | 27524 ft | 374 kts | 239° |
| 2026-05-06 17:08 | 38.36371 | 120.94639 | 27534 ft | 372 kts | 239° |
| 2026-05-06 17:08 | 38.34996 | 120.91868 | 27527 ft | 369 kts | 239° |
| 2026-05-06 17:08 | 38.33638 | 120.89154 | 27529 ft | 369 kts | 239° |
| 2026-05-06 17:08 | 38.32256 | 120.86398 | 27526 ft | 369 kts | 239° |
| 2026-05-06 17:09 | 38.30878 | 120.83640 | 27526 ft | 369 kts | 239° |
| 2026-05-06 17:09 | 38.29511 | 120.80871 | 27515 ft | 371 kts | 239° |
| 2026-05-06 17:09 | 38.28146 | 120.78076 | 27568 ft | 372 kts | 240° |
| 2026-05-06 17:09 | 38.26765 | 120.75288 | 27539 ft | 373 kts | 239° |
| 2026-05-06 17:10 | 38.25242 | 120.72619 | 27533 ft | 375 kts | 227° |
| 2026-05-06 17:10 | 38.23136 | 120.70623 | 27543 ft | 381 kts | 216° |
| 2026-05-06 17:10 | 38.20819 | 120.68952 | 27538 ft | 384 kts | 213° |
| 2026-05-06 17:10 | 38.18430 | 120.67408 | 27531 ft | 386 kts | 211° |
| 2026-05-06 17:11 | 38.16002 | 120.65944 | 27525 ft | 386 kts | 211° |
| 2026-05-06 17:11 | 38.13566 | 120.64493 | 27507 ft | 387 kts | 211° |
| 2026-05-06 17:11 | 38.11131 | 120.63033 | 27511 ft | 388 kts | 211° |
| 2026-05-06 17:11 | 38.08693 | 120.61563 | 27522 ft | 388 kts | 211° |
| 2026-05-06 17:12 | 38.06260 | 120.60081 | 27525 ft | 388 kts | 212° |
| 2026-05-06 17:12 | 38.03782 | 120.58709 | 27523 ft | 391 kts | 207° |
| 2026-05-06 17:12 | 38.01170 | 120.57661 | 27524 ft | 396 kts | 201° |
| 2026-05-06 17:12 | 37.98447 | 120.56989 | 27524 ft | 402 kts | 195° |
| 2026-05-06 17:13 | 37.95654 | 120.56608 | 27508 ft | 405 kts | 192° |
| 2026-05-06 17:13 | 37.92836 | 120.56382 | 27517 ft | 407 kts | 191° |
| 2026-05-06 17:13 | 37.90005 | 120.56216 | 27517 ft | 408 kts | 190° |
| 2026-05-06 17:13 | 37.87212 | 120.56061 | 27506 ft | 407 kts | 191° |
| 2026-05-06 17:14 | 37.84342 | 120.55889 | 27504 ft | 407 kts | 191° |
| 2026-05-06 17:14 | 37.81519 | 120.55696 | 27514 ft | 406 kts | 191° |
| 2026-05-06 17:14 | 37.78688 | 120.55473 | 27501 ft | 406 kts | 191° |
| 2026-05-06 17:14 | 37.75866 | 120.55247 | 27482 ft | 408 kts | 192° |
| 2026-05-06 17:15 | 37.73028 | 120.55034 | 27495 ft | 410 kts | 192° |
| 2026-05-06 17:15 | 37.70174 | 120.54824 | 27498 ft | 411 kts | 192° |
| 2026-05-06 17:15 | 37.67318 | 120.54615 | 27500 ft | 411 kts | 192° |
| 2026-05-06 17:15 | 37.64471 | 120.54348 | 27496 ft | 409 kts | 194° |
| 2026-05-06 17:16 | 37.61650 | 120.53963 | 27500 ft | 407 kts | 195° |
| 2026-05-06 17:16 | 37.58849 | 120.53532 | 27500 ft | 406 kts | 195° |
| 2026-05-06 17:16 | 37.56076 | 120.53088 | 27488 ft | 408 kts | 196° |
| 2026-05-06 17:16 | 37.53247 | 120.52634 | 27502 ft | 411 kts | 196° |
| 2026-05-06 17:17 | 37.50406 | 120.52186 | 27499 ft | 414 kts | 195° |
| 2026-05-06 17:17 | 37.47537 | 120.51761 | 27502 ft | 415 kts | 195° |
| 2026-05-06 17:17 | 37.44676 | 120.51352 | 27512 ft | 415 kts | 195° |
| 2026-05-06 17:17 | 37.41803 | 120.50948 | 27510 ft | 414 kts | 195° |
| 2026-05-06 17:18 | 37.38940 | 120.50522 | 27497 ft | 413 kts | 195° |
| 2026-05-06 17:18 | 37.36087 | 120.50079 | 27478 ft | 415 kts | 195° |
| 2026-05-06 17:18 | 37.33214 | 120.49653 | 27486 ft | 418 kts | 195° |
| 2026-05-06 17:18 | 37.30320 | 120.49232 | 27495 ft | 419 kts | 195° |
| 2026-05-06 17:19 | 37.27417 | 120.48817 | 27491 ft | 419 kts | 195° |
| 2026-05-06 17:19 | 37.24522 | 120.48404 | 27484 ft | 418 kts | 195° |
| 2026-05-06 17:19 | 37.21645 | 120.47967 | 27488 ft | 417 kts | 195° |
| 2026-05-06 17:19 | 37.18765 | 120.47534 | 27488 ft | 417 kts | 195° |
| 2026-05-06 17:20 | 37.15882 | 120.47114 | 27464 ft | 417 kts | 195° |
| 2026-05-06 17:20 | 37.12991 | 120.46685 | 27485 ft | 418 kts | 195° |
| 2026-05-06 17:20 | 37.10136 | 120.46259 | 27487 ft | 419 kts | 195° |
| 2026-05-06 17:20 | 37.07239 | 120.45825 | 27490 ft | 419 kts | 195° |
| 2026-05-06 17:21 | 37.04342 | 120.45392 | 27491 ft | 419 kts | 195° |
| 2026-05-06 17:21 | 37.01451 | 120.44957 | 27491 ft | 419 kts | 195° |
| 2026-05-06 17:21 | 36.98564 | 120.44525 | 27493 ft | 418 kts | 195° |
| 2026-05-06 17:21 | 36.95665 | 120.44087 | 27490 ft | 418 kts | 195° |
| 2026-05-06 17:22 | 36.92777 | 120.43656 | 27485 ft | 419 kts | 195° |
| 2026-05-06 17:22 | 36.89885 | 120.43256 | 27487 ft | 419 kts | 194° |
| 2026-05-06 17:22 | 36.86988 | 120.42835 | 27493 ft | 419 kts | 195° |
| 2026-05-06 17:22 | 36.84094 | 120.42404 | 27490 ft | 419 kts | 195° |
| 2026-05-06 17:23 | 36.81207 | 120.41969 | 27491 ft | 419 kts | 195° |
| 2026-05-06 17:23 | 36.78305 | 120.41551 | 27490 ft | 419 kts | 194° |
| 2026-05-06 17:23 | 36.75403 | 120.41150 | 27470 ft | 420 kts | 194° |
| 2026-05-06 17:23 | 36.72484 | 120.40736 | 27482 ft | 421 kts | 195° |
| 2026-05-06 17:24 | 36.69617 | 120.40302 | 27484 ft | 421 kts | 195° |
| 2026-05-06 17:24 | 36.66675 | 120.39877 | 27491 ft | 421 kts | 194° |
| 2026-05-06 17:24 | 36.63764 | 120.39461 | 27488 ft | 421 kts | 195° |
| 2026-05-06 17:24 | 36.60859 | 120.39024 | 27484 ft | 421 kts | 195° |
| 2026-05-06 17:25 | 36.57957 | 120.38588 | 27482 ft | 421 kts | 195° |
| 2026-05-06 17:25 | 36.55031 | 120.38181 | 27466 ft | 422 kts | 194° |
| 2026-05-06 17:25 | 36.52106 | 120.37853 | 27474 ft | 425 kts | 192° |
| 2026-05-06 17:25 | 36.49141 | 120.37654 | 27479 ft | 427 kts | 190° |
| 2026-05-06 17:26 | 36.46167 | 120.37529 | 27484 ft | 428 kts | 190° |
| 2026-05-06 17:26 | 36.43190 | 120.37428 | 27485 ft | 428 kts | 189° |
| 2026-05-06 17:26 | 36.40217 | 120.37343 | 27484 ft | 428 kts | 189° |
| 2026-05-06 17:26 | 36.37237 | 120.37241 | 27484 ft | 427 kts | 190° |
| 2026-05-06 17:27 | 36.34271 | 120.37114 | 27462 ft | 426 kts | 189° |
| 2026-05-06 17:27 | 36.31303 | 120.36993 | 27473 ft | 426 kts | 190° |
| 2026-05-06 17:27 | 36.28363 | 120.36711 | 27479 ft | 422 kts | 194° |
| 2026-05-06 17:27 | 36.25470 | 120.36164 | 27483 ft | 419 kts | 198° |
| 2026-05-06 17:28 | 36.22656 | 120.35481 | 27481 ft | 418 kts | 199° |
| 2026-05-06 17:28 | 36.19813 | 120.34727 | 27483 ft | 417 kts | 200° |
| 2026-05-06 17:28 | 36.16971 | 120.33970 | 27485 ft | 418 kts | 199° |
| 2026-05-06 17:28 | 36.14128 | 120.33223 | 27466 ft | 417 kts | 199° |
| 2026-05-06 17:29 | 36.11321 | 120.32502 | 27478 ft | 418 kts | 199° |
| 2026-05-06 17:29 | 36.08480 | 120.31788 | 27484 ft | 418 kts | 198° |
| 2026-05-06 17:29 | 36.05624 | 120.31076 | 27489 ft | 418 kts | 198° |
| 2026-05-06 17:29 | 36.02779 | 120.30338 | 27488 ft | 415 kts | 202° |
| 2026-05-06 17:30 | 36.00079 | 120.29198 | 27492 ft | 409 kts | 208° |
| 2026-05-06 17:30 | 35.97434 | 120.27866 | 27495 ft | 406 kts | 212° |
| 2026-05-06 17:30 | 35.94993 | 120.26175 | 27477 ft | 400 kts | 219° |
| 2026-05-06 17:30 | 35.92743 | 120.24174 | 27483 ft | 398 kts | 223° |
| 2026-05-06 17:31 | 35.90585 | 120.22031 | 27484 ft | 397 kts | 225° |
| 2026-05-06 17:31 | 35.88481 | 120.19828 | 27484 ft | 397 kts | 225° |
| 2026-05-06 17:31 | 35.86379 | 120.17622 | 27487 ft | 397 kts | 225° |
| 2026-05-06 17:31 | 35.84277 | 120.15405 | 27483 ft | 397 kts | 225° |
| 2026-05-06 17:32 | 35.82163 | 120.13210 | 27484 ft | 397 kts | 225° |
| 2026-05-06 17:32 | 35.80045 | 120.11032 | 27497 ft | 397 kts | 225° |
| 2026-05-06 17:32 | 35.77923 | 120.08859 | 27467 ft | 397 kts | 225° |
| 2026-05-06 17:32 | 35.75798 | 120.06684 | 27479 ft | 398 kts | 225° |
| 2026-05-06 17:33 | 35.73669 | 120.04503 | 27479 ft | 398 kts | 225° |
| 2026-05-06 17:33 | 35.71565 | 120.02346 | 27471 ft | 398 kts | 225° |
| 2026-05-06 17:33 | 35.69437 | 120.00165 | 27477 ft | 398 kts | 225° |
| 2026-05-06 17:33 | 35.67309 | 119.97985 | 27478 ft | 398 kts | 225° |
| 2026-05-06 17:34 | 35.65179 | 119.95802 | 27474 ft | 398 kts | 224° |
| 2026-05-06 17:34 | 35.63035 | 119.93642 | 27485 ft | 398 kts | 224° |
| 2026-05-06 17:34 | 35.60903 | 119.91478 | 27469 ft | 398 kts | 224° |
| 2026-05-06 17:34 | 35.58773 | 119.89298 | 27477 ft | 399 kts | 224° |
| 2026-05-06 17:35 | 35.56625 | 119.87130 | 27482 ft | 399 kts | 224° |
| 2026-05-06 17:35 | 35.54488 | 119.84952 | 27478 ft | 399 kts | 224° |
| 2026-05-06 17:35 | 35.52346 | 119.82775 | 27480 ft | 400 kts | 224° |
| 2026-05-06 17:36 | 35.48051 | 119.78429 | 27480 ft | 399 kts | 225° |
| 2026-05-06 17:36 | 35.45915 | 119.76249 | 27481 ft | 399 kts | 225° |
| 2026-05-06 17:36 | 35.43788 | 119.74072 | 27462 ft | 399 kts | 225° |
| 2026-05-06 17:36 | 35.41656 | 119.71881 | 27472 ft | 400 kts | 225° |
| 2026-05-06 17:37 | 35.39526 | 119.69689 | 27476 ft | 400 kts | 225° |
| 2026-05-06 17:37 | 35.37393 | 119.67490 | 27478 ft | 401 kts | 225° |
| 2026-05-06 17:37 | 35.35287 | 119.65318 | 27478 ft | 401 kts | 225° |
| 2026-05-06 17:37 | 35.33127 | 119.63092 | 27479 ft | 401 kts | 225° |
| 2026-05-06 17:38 | 35.31028 | 119.60924 | 27478 ft | 400 kts | 225° |
| 2026-05-06 17:38 | 35.28897 | 119.58727 | 27479 ft | 400 kts | 225° |
| 2026-05-06 17:38 | 35.26756 | 119.56544 | 27459 ft | 401 kts | 224° |
| 2026-05-06 17:38 | 35.24623 | 119.54343 | 27470 ft | 402 kts | 225° |
| 2026-05-06 17:39 | 35.22484 | 119.52128 | 27481 ft | 403 kts | 225° |
| 2026-05-06 17:39 | 35.20346 | 119.49913 | 27481 ft | 402 kts | 225° |
| 2026-05-06 17:39 | 35.18208 | 119.47703 | 27480 ft | 402 kts | 224° |
| 2026-05-06 17:39 | 35.16039 | 119.45541 | 27480 ft | 402 kts | 223° |
| 2026-05-06 17:40 | 35.13853 | 119.43412 | 27481 ft | 403 kts | 223° |
| 2026-05-06 17:40 | 35.11643 | 119.41299 | 27483 ft | 403 kts | 223° |
| 2026-05-06 17:40 | 35.09470 | 119.39224 | 27483 ft | 403 kts | 223° |
| 2026-05-06 17:40 | 35.07273 | 119.37085 | 27483 ft | 403 kts | 224° |
| 2026-05-06 17:41 | 35.05102 | 119.34917 | 27485 ft | 402 kts | 224° |
| 2026-05-06 17:41 | 35.02959 | 119.32731 | 27485 ft | 402 kts | 225° |
| 2026-05-06 17:41 | 35.00816 | 119.30533 | 27485 ft | 402 kts | 224° |
| 2026-05-06 17:41 | 34.98663 | 119.28357 | 27484 ft | 402 kts | 224° |
| 2026-05-06 17:42 | 34.96508 | 119.26193 | 27485 ft | 402 kts | 224° |
| 2026-05-06 17:42 | 34.94357 | 119.24022 | 27484 ft | 402 kts | 225° |
| 2026-05-06 17:42 | 34.92209 | 119.21826 | 27457 ft | 402 kts | 224° |
| 2026-05-06 17:42 | 34.90070 | 119.19660 | 27467 ft | 396 kts | 224° |
| 2026-05-06 17:43 | 34.87955 | 119.17536 | 27472 ft | 392 kts | 224° |
| 2026-05-06 17:43 | 34.85852 | 119.15431 | 27475 ft | 392 kts | 224° |
| 2026-05-06 17:43 | 34.83743 | 119.13321 | 27478 ft | 393 kts | 224° |
| 2026-05-06 17:43 | 34.81634 | 119.11210 | 27481 ft | 393 kts | 224° |
| 2026-05-06 17:44 | 34.79534 | 119.09085 | 27479 ft | 393 kts | 224° |
| 2026-05-06 17:44 | 34.77426 | 119.06961 | 27481 ft | 393 kts | 224° |
| 2026-05-06 17:44 | 34.75321 | 119.04849 | 27482 ft | 393 kts | 224° |
| 2026-05-06 17:44 | 34.73211 | 119.02733 | 27473 ft | 393 kts | 224° |
| 2026-05-06 17:45 | 34.71110 | 119.00613 | 27477 ft | 393 kts | 224° |
| 2026-05-06 17:45 | 34.69004 | 118.98482 | 27484 ft | 394 kts | 224° |
| 2026-05-06 17:45 | 34.66900 | 118.96352 | 27484 ft | 394 kts | 224° |
| 2026-05-06 17:45 | 34.64795 | 118.94224 | 27488 ft | 394 kts | 224° |
| 2026-05-06 17:46 | 34.62717 | 118.92131 | 27487 ft | 393 kts | 224° |
| 2026-05-06 17:46 | 34.60476 | 118.90215 | 27489 ft | 399 kts | 212° |
| 2026-05-06 17:46 | 34.57889 | 118.88910 | 27489 ft | 405 kts | 204° |
| 2026-05-06 17:46 | 34.55155 | 118.87997 | 27470 ft | 411 kts | 198° |
| 2026-05-06 17:47 | 34.52332 | 118.87378 | 27476 ft | 413 kts | 194° |
| 2026-05-06 17:47 | 34.49485 | 118.86917 | 27480 ft | 414 kts | 192° |
| 2026-05-06 17:47 | 34.46621 | 118.86515 | 27482 ft | 414 kts | 192° |
| 2026-05-06 17:47 | 34.43758 | 118.86115 | 27481 ft | 414 kts | 192° |
| 2026-05-06 17:48 | 34.40908 | 118.85697 | 27481 ft | 414 kts | 193° |
| 2026-05-06 17:48 | 34.38038 | 118.85259 | 27483 ft | 414 kts | 193° |
| 2026-05-06 17:48 | 34.35184 | 118.84815 | 27483 ft | 414 kts | 193° |
| 2026-05-06 17:48 | 34.32335 | 118.84340 | 27471 ft | 413 kts | 193° |
| 2026-05-06 17:49 | 34.29485 | 118.83875 | 27480 ft | 414 kts | 193° |
| 2026-05-06 17:49 | 34.26626 | 118.83418 | 27482 ft | 414 kts | 193° |
| 2026-05-06 17:49 | 34.23761 | 118.82964 | 27484 ft | 415 kts | 193° |
| 2026-05-06 17:49 | 34.20938 | 118.82514 | 27490 ft | 414 kts | 193° |
| 2026-05-06 17:50 | 34.18044 | 118.82029 | 27483 ft | 414 kts | 193° |
| 2026-05-06 17:50 | 34.15223 | 118.81573 | 27484 ft | 414 kts | 193° |
| 2026-05-06 17:50 | 34.12335 | 118.81109 | 27484 ft | 414 kts | 193° |
| 2026-05-06 17:50 | 34.09509 | 118.80652 | 27476 ft | 414 kts | 193° |
| 2026-05-06 17:51 | 34.06652 | 118.80180 | 27480 ft | 415 kts | 193° |
| 2026-05-06 17:51 | 34.03809 | 118.79708 | 27484 ft | 415 kts | 193° |
| 2026-05-06 17:51 | 34.00946 | 118.79240 | 27490 ft | 416 kts | 193° |
| 2026-05-06 17:51 | 33.98073 | 118.78802 | 27494 ft | 416 kts | 192° |
| 2026-05-06 17:52 | 33.95207 | 118.78346 | 27487 ft | 415 kts | 193° |
| 2026-05-06 17:52 | 33.92348 | 118.77878 | 27491 ft | 415 kts | 193° |
| 2026-05-06 17:52 | 33.89479 | 118.77433 | 27474 ft | 415 kts | 192° |
| 2026-05-06 17:52 | 33.86613 | 118.76996 | 27483 ft | 416 kts | 192° |
| 2026-05-06 17:53 | 33.83736 | 118.76534 | 27482 ft | 416 kts | 193° |
| 2026-05-06 17:53 | 33.80860 | 118.76056 | 27484 ft | 417 kts | 193° |
| 2026-05-06 17:53 | 33.77984 | 118.75605 | 27485 ft | 417 kts | 192° |
| 2026-05-06 17:53 | 33.75108 | 118.75153 | 27485 ft | 416 kts | 193° |
| 2026-05-06 17:54 | 33.73210 | 118.74837 | 27487 ft | 416 kts | 193° |
| 2026-05-06 17:54 | 33.69370 | 118.74221 | 27486 ft | 416 kts | 192° |
| 2026-05-06 17:54 | 33.67463 | 118.73926 | 27470 ft | 416 kts | 192° |
| 2026-05-06 17:54 | 33.64586 | 118.73480 | 27480 ft | 417 kts | 192° |
| 2026-05-06 17:55 | 33.61713 | 118.73024 | 27490 ft | 417 kts | 193° |
| 2026-05-06 17:55 | 33.58840 | 118.72545 | 27492 ft | 417 kts | 193° |
| 2026-05-06 17:55 | 33.55958 | 118.72088 | 27491 ft | 417 kts | 192° |
| 2026-05-06 17:55 | 33.52150 | 118.71491 | 27490 ft | 417 kts | 192° |
| 2026-05-06 17:56 | 33.50240 | 118.71195 | 27492 ft | 417 kts | 192° |
| 2026-05-06 17:56 | 33.47369 | 118.70726 | 27491 ft | 416 kts | 193° |
| 2026-05-06 17:56 | 33.44495 | 118.70255 | 27480 ft | 417 kts | 192° |
| 2026-05-06 17:56 | 33.41630 | 118.69802 | 27486 ft | 417 kts | 192° |
| 2026-05-06 17:57 | 33.38750 | 118.69351 | 27488 ft | 417 kts | 192° |
| 2026-05-06 17:57 | 33.35876 | 118.68902 | 27490 ft | 417 kts | 192° |
| 2026-05-06 17:57 | 33.33000 | 118.68432 | 27490 ft | 417 kts | 193° |
| 2026-05-06 17:57 | 33.30119 | 118.67966 | 27490 ft | 417 kts | 192° |
| 2026-05-06 17:58 | 33.27241 | 118.67510 | 27490 ft | 417 kts | 192° |
| 2026-05-06 17:58 | 33.24364 | 118.67058 | 27490 ft | 417 kts | 192° |
| 2026-05-06 17:58 | 33.21487 | 118.66605 | 27481 ft | 415 kts | 193° |
| 2026-05-06 17:58 | 33.18633 | 118.66132 | 27490 ft | 414 kts | 193° |
| 2026-05-06 17:59 | 33.15775 | 118.65670 | 27490 ft | 415 kts | 192° |
| 2026-05-06 17:59 | 33.12910 | 118.65216 | 27494 ft | 416 kts | 192° |
| 2026-05-06 17:59 | 33.10041 | 118.64764 | 27494 ft | 416 kts | 192° |
| 2026-05-06 17:59 | 33.07166 | 118.64313 | 27494 ft | 416 kts | 192° |
| 2026-05-06 18:00 | 33.04299 | 118.63864 | 27496 ft | 415 kts | 192° |
| 2026-05-06 18:00 | 33.01437 | 118.63416 | 27496 ft | 415 kts | 193° |
| 2026-05-06 18:00 | 32.98574 | 118.62945 | 27496 ft | 415 kts | 193° |
| 2026-05-06 18:00 | 32.95715 | 118.62484 | 27500 ft | 415 kts | 193° |
| 2026-05-06 18:01 | 32.92888 | 118.62035 | 27501 ft | 415 kts | 192° |
| 2026-05-06 18:01 | 32.90023 | 118.61583 | 27499 ft | 416 kts | 192° |
| 2026-05-06 18:01 | 32.87149 | 118.61128 | 27503 ft | 416 kts | 192° |
| 2026-05-06 18:01 | 32.84282 | 118.60676 | 27501 ft | 416 kts | 192° |
| 2026-05-06 18:02 | 32.81418 | 118.60223 | 27497 ft | 416 kts | 193° |
| 2026-05-06 18:02 | 32.78547 | 118.59771 | 27497 ft | 416 kts | 193° |
| 2026-05-06 18:02 | 32.75689 | 118.59321 | 27486 ft | 415 kts | 192° |
| 2026-05-06 18:02 | 32.72830 | 118.58876 | 27491 ft | 414 kts | 192° |
| 2026-05-06 18:03 | 32.69942 | 118.58651 | 27497 ft | 419 kts | 184° |
| 2026-05-06 18:03 | 32.67018 | 118.58766 | 27501 ft | 421 kts | 182° |
| 2026-05-06 18:03 | 32.64094 | 118.59142 | 27501 ft | 426 kts | 175° |
| 2026-05-06 18:03 | 32.61175 | 118.59876 | 27501 ft | 429 kts | 171° |
| 2026-05-06 18:04 | 32.58290 | 118.60819 | 27499 ft | 431 kts | 169° |
| 2026-05-06 18:04 | 32.55418 | 118.61837 | 27498 ft | 431 kts | 168° |
| 2026-05-06 18:04 | 32.52549 | 118.62878 | 27484 ft | 431 kts | 168° |
| 2026-05-06 18:04 | 32.49681 | 118.63905 | 27489 ft | 431 kts | 168° |
| 2026-05-06 18:05 | 32.46792 | 118.64905 | 27232 ft | 435 kts | 169° |
| 2026-05-06 18:05 | 32.43903 | 118.65880 | 26865 ft | 435 kts | 169° |
| 2026-05-06 18:05 | 32.41001 | 118.66851 | 26492 ft | 432 kts | 169° |
| 2026-05-06 18:05 | 32.38091 | 118.67808 | 26119 ft | 437 kts | 169° |
| 2026-05-06 18:06 | 32.35144 | 118.68799 | 25448 ft | 441 kts | 169° |
| 2026-05-06 18:06 | 32.32239 | 118.69792 | 24678 ft | 439 kts | 169° |
| 2026-05-06 18:06 | 32.29320 | 118.70782 | 23916 ft | 434 kts | 169° |
| 2026-05-06 18:06 | 32.26422 | 118.71744 | 23114 ft | 431 kts | 169° |
| 2026-05-06 18:07 | 32.23556 | 118.72698 | 22232 ft | 426 kts | 169° |
| 2026-05-06 18:07 | 32.20732 | 118.73632 | 21389 ft | 421 kts | 169° |
| 2026-05-06 18:07 | 32.17910 | 118.74569 | 20552 ft | 416 kts | 169° |
| 2026-05-06 18:07 | 32.15157 | 118.75509 | 19760 ft | 397 kts | 169° |
| 2026-05-06 18:08 | 32.12609 | 118.76385 | 18963 ft | 379 kts | 169° |
| 2026-05-06 18:08 | 32.10085 | 118.77221 | 18191 ft | 373 kts | 169° |
| 2026-05-06 18:08 | 32.07619 | 118.78033 | 17311 ft | 366 kts | 169° |
| 2026-05-06 18:08 | 32.05188 | 118.78842 | 16459 ft | 360 kts | 168° |
| 2026-05-06 18:09 | 32.02795 | 118.79627 | 15625 ft | 355 kts | 168° |
| 2026-05-06 18:09 | 32.00396 | 118.80423 | 14798 ft | 359 kts | 167° |
| 2026-05-06 18:09 | 31.97992 | 118.81220 | 14009 ft | 359 kts | 167° |
| 2026-05-06 18:09 | 31.95585 | 118.82022 | 13177 ft | 358 kts | 167° |
| 2026-05-06 18:10 | 31.93204 | 118.82816 | 12322 ft | 356 kts | 166° |
| 2026-05-06 18:10 | 31.90886 | 118.83607 | 11490 ft | 330 kts | 166° |
| 2026-05-06 18:10 | 31.88777 | 118.84351 | 10655 ft | 305 kts | 161° |
| 2026-05-06 18:10 | 31.87072 | 118.85689 | 9855 ft | 294 kts | 131° |
| 2026-05-06 18:11 | 31.86181 | 118.87815 | 8980 ft | 297 kts | 101° |
| 2026-05-06 18:11 | 31.86273 | 118.90263 | 8156 ft | 307 kts | 72° |
| 2026-05-06 18:11 | 31.87300 | 118.92460 | 7425 ft | 308 kts | 51° |
| 2026-05-06 18:11 | 31.88542 | 118.94294 | 6797 ft | 269 kts | 51° |
| 2026-05-06 18:12 | 31.89654 | 118.95984 | 6139 ft | 261 kts | 51° |
| 2026-05-06 18:12 | 31.90789 | 118.97758 | 5451 ft | 278 kts | 53° |
| 2026-05-06 18:12 | 31.91910 | 118.99584 | 5089 ft | 277 kts | 54° |
| 2026-05-06 18:12 | 31.93000 | 119.01459 | 4733 ft | 275 kts | 57° |
| 2026-05-06 18:13 | 31.93667 | 119.03552 | 4169 ft | 279 kts | 88° |
| 2026-05-06 18:13 | 31.93305 | 119.05695 | 3999 ft | 261 kts | 122° |
| 2026-05-06 18:13 | 31.92191 | 119.07267 | 3942 ft | 243 kts | 140° |
| 2026-05-06 18:13 | 31.90960 | 119.08541 | 3916 ft | 229 kts | 146° |
| 2026-05-06 18:14 | 31.89721 | 119.09596 | 3947 ft | 209 kts | 150° |
| 2026-05-06 18:14 | 31.88535 | 119.10493 | 3981 ft | 202 kts | 153° |
| 2026-05-06 18:14 | 31.87236 | 119.11069 | 3764 ft | 199 kts | 183° |
| 2026-05-06 18:14 | 31.86004 | 119.10523 | 3505 ft | 190 kts | 223° |
| 2026-05-06 18:15 | 31.85088 | 119.09411 | 3243 ft | 190 kts | 227° |
| 2026-05-06 18:15 | 31.84193 | 119.08263 | 2966 ft | 190 kts | 229° |
| 2026-05-06 18:15 | 31.83336 | 119.07087 | 2680 ft | 188 kts | 231° |
| 2026-05-06 18:15 | 31.82555 | 119.05859 | 2382 ft | 188 kts | 234° |
| 2026-05-06 18:16 | 31.81831 | 119.04591 | 2148 ft | 184 kts | 236° |
| 2026-05-06 18:16 | 31.81159 | 119.03334 | 2036 ft | 176 kts | 237° |
| 2026-05-06 18:16 | 31.80542 | 119.02144 | 1998 ft | 172 kts | 237° |
| 2026-05-06 18:16 | 31.79927 | 119.00941 | 1996 ft | 172 kts | 237° |
| 2026-05-06 18:17 | 31.79304 | 118.99738 | 1995 ft | 172 kts | 236° |
| 2026-05-06 18:17 | 31.78673 | 118.98539 | 1993 ft | 172 kts | 236° |
| 2026-05-06 18:17 | 31.78036 | 118.97347 | 1839 ft | 173 kts | 236° |
| 2026-05-06 18:17 | 31.77424 | 118.96187 | 1630 ft | 160 kts | 236° |
| 2026-05-06 18:18 | 31.76842 | 118.95100 | 1413 ft | 154 kts | 236° |
| 2026-05-06 18:18 | 31.76304 | 118.94099 | 1218 ft | 136 kts | 236° |
| 2026-05-06 18:18 | 31.75826 | 118.93200 | 1046 ft | 128 kts | 236° |
| 2026-05-06 18:18 | 31.75348 | 118.92310 | 865 ft | 129 kts | 236° |
| 2026-05-06 18:19 | 31.74875 | 118.91426 | 722 ft | 129 kts | 236° |
| 2026-05-06 18:19 | 31.74387 | 118.90519 | 569 ft | 133 kts | 236° |
| 2026-05-06 18:19 | 31.73890 | 118.89593 | 403 ft | 137 kts | 236° |
| 2026-05-06 18:19 | 31.73388 | 118.88648 | 223 ft | 137 kts | 237° |
| 2026-05-06 18:20 | 31.72912 | 118.87735 | 66 ft | 129 kts | 237° |
| 2026-05-06 18:20 | 31.72484 | 118.86954 | 57 ft | 92 kts | 239° |
| 2026-05-06 18:20 | 31.72294 | 118.86466 | 57 ft | 46 kts | 266° |
| 2026-05-06 18:20 | 31.72329 | 118.86274 | 56 ft | 18 kts | 337° |
| 2026-05-06 18:21 | 31.72401 | 118.86266 | 58 ft | 10 kts | 26° |
| 2026-05-06 18:21 | 31.72448 | 118.86318 | 53 ft | 10 kts | 50° |
| 2026-05-06 18:21 | 31.72494 | 118.86394 | 54 ft | 13 kts | 57° |
| 2026-05-06 18:21 | 31.72535 | 118.86470 | 57 ft | 2 kts | 58° |
| 2026-05-06 18:22 | 31.72549 | 118.86496 | 56 ft | 6 kts | 58° |
| 2026-05-06 18:22 | 31.72594 | 118.86506 | 54 ft | 11 kts | 327° |
| 2026-05-06 18:22 | 31.72679 | 118.86441 | 52 ft | 18 kts | 327° |
| 2026-05-06 18:22 | 31.72803 | 118.86350 | 55 ft | 24 kts | 330° |
| 2026-05-06 18:23 | 31.72929 | 118.86276 | 54 ft | 10 kts | 5° |
| 2026-05-06 18:23 | 31.72987 | 118.86332 | 55 ft | 14 kts | 62° |
| 2026-05-06 18:23 | 31.73044 | 118.86450 | 53 ft | 19 kts | 68° |
| 2026-05-06 18:23 | 31.73075 | 118.86560 | 56 ft | 10 kts | 65° |
| 2026-05-06 18:24 | 31.73116 | 118.86644 | 53 ft | 14 kts | 58° |
| 2026-05-06 18:24 | 31.73100 | 118.86714 | 57 ft | 11 kts | 146° |
| 2026-05-06 18:24 | 31.73063 | 118.86741 | 58 ft | 3 kts | 148° |
| 2026-05-06 18:24 | 31.73062 | 118.86742 | 58 ft | 0 kts | 148° |